Millbrook, Alabama
Current Conditions -  °F | °C
As of 10:58 AM on Wednesday 26 Nov 2014 (Local Time) from KMXF Reporting Station
Clear Clear  
Wind Chill: 54°   Ceiling: Unl
Heat Index: 54°   Visibility: 10mi
Dew Point: 29°   Wind: 8mph
Humidity: 38%   Direction: 240°WSW
Pressure: 30.2"   Gusts: NA
Location:  32.48°N, 86.36°W
Report Text: KMXF 261658Z AUTO 24007KT 10SM CLR 12/M02 A3020 RMK AO2 SLP230 T01231017
Loading
Personal Weather Stations






























Interactive Weather Map New forecast layout! Learn more

10-Day Weather Forecast

Advertisements
Track Severe Weather on mobile